createdAt,value
2019-05-11T00:00:15.900Z,13.00
2019-05-11T00:02:43.689Z,13.00
2019-05-11T00:05:11.481Z,13.00
2019-05-11T00:07:39.683Z,13.00
2019-05-11T00:10:07.586Z,13.10
2019-05-11T00:12:35.356Z,13.10
2019-05-11T00:15:03.306Z,13.00
2019-05-11T00:17:31.121Z,13.10
2019-05-11T00:19:59.242Z,13.00
2019-05-11T00:22:27.060Z,13.00
2019-05-11T00:24:54.872Z,13.00
2019-05-11T00:27:22.688Z,13.00
2019-05-11T00:29:50.499Z,12.90
2019-05-11T00:32:18.329Z,12.80
2019-05-11T00:34:46.133Z,12.70
2019-05-11T00:37:13.979Z,12.70
2019-05-11T00:39:41.764Z,12.50
2019-05-11T00:42:09.562Z,12.30
2019-05-11T00:44:37.433Z,12.30
2019-05-11T00:47:05.214Z,12.20
2019-05-11T00:49:32.992Z,12.10
2019-05-11T00:52:00.764Z,12.00
2019-05-11T00:54:28.557Z,11.90
2019-05-11T00:56:56.325Z,11.80
2019-05-11T00:59:24.120Z,11.80
2019-05-11T01:01:52.214Z,11.90
2019-05-11T01:04:20.055Z,12.00
2019-05-11T01:06:47.854Z,12.00
2019-05-11T01:09:15.709Z,12.00
2019-05-11T01:11:43.489Z,12.00
2019-05-11T01:14:11.279Z,12.00
2019-05-11T01:16:39.052Z,12.10
2019-05-11T01:19:06.873Z,12.10
2019-05-11T01:21:34.640Z,12.20
2019-05-11T01:24:02.424Z,12.20
2019-05-11T01:26:30.204Z,12.20
2019-05-11T01:28:58.003Z,12.20
2019-05-11T01:31:25.787Z,12.20
2019-05-11T01:33:53.560Z,12.20
2019-05-11T01:36:21.372Z,12.00
2019-05-11T01:38:49.308Z,11.90
2019-05-11T01:41:17.094Z,11.90
2019-05-11T01:43:44.903Z,12.00
2019-05-11T01:46:12.696Z,12.00
2019-05-11T01:48:40.488Z,12.00
2019-05-11T01:51:08.272Z,12.00
2019-05-11T01:53:36.057Z,11.90
2019-05-11T01:56:03.847Z,12.00
2019-05-11T01:58:31.653Z,12.00
2019-05-11T02:00:59.460Z,11.90
2019-05-11T02:03:27.233Z,11.90
2019-05-11T02:05:55.017Z,11.90
2019-05-11T02:08:22.801Z,11.80
2019-05-11T02:10:50.699Z,11.60
2019-05-11T02:13:18.508Z,11.50
2019-05-11T02:15:46.352Z,11.50
2019-05-11T02:18:14.165Z,11.30
2019-05-11T02:20:41.959Z,11.30
2019-05-11T02:23:09.745Z,11.40
2019-05-11T02:25:37.539Z,11.30
2019-05-11T02:28:05.299Z,11.30
2019-05-11T02:30:33.086Z,11.30
2019-05-11T02:33:00.876Z,11.30
2019-05-11T02:35:28.666Z,11.30
2019-05-11T02:37:56.548Z,11.30
2019-05-11T02:40:24.720Z,11.30
2019-05-11T02:42:52.494Z,11.30
2019-05-11T02:45:29.855Z,11.30
2019-05-11T02:47:57.644Z,11.30
2019-05-11T02:50:25.446Z,11.30
2019-05-11T02:52:53.310Z,11.20
2019-05-11T02:55:21.092Z,11.20
2019-05-11T02:57:48.885Z,11.30
2019-05-11T03:00:18.210Z,11.30
2019-05-11T03:02:46.072Z,11.20
2019-05-11T03:05:13.881Z,11.30
2019-05-11T03:07:41.971Z,11.30
2019-05-11T03:10:10.007Z,11.20
2019-05-11T03:12:37.810Z,11.20
2019-05-11T03:15:06.232Z,11.10
2019-05-11T03:17:34.017Z,11.10
2019-05-11T03:20:01.880Z,11.00
2019-05-11T03:22:29.803Z,11.00
2019-05-11T03:24:57.700Z,10.90
2019-05-11T03:27:25.474Z,10.90
2019-05-11T03:29:53.252Z,11.00
2019-05-11T03:32:21.107Z,11.00
2019-05-11T03:34:48.957Z,11.00
2019-05-11T03:37:16.791Z,11.00
2019-05-11T03:39:44.568Z,10.90
2019-05-11T03:42:15.173Z,10.90
2019-05-11T03:44:42.085Z,10.90
2019-05-11T03:47:09.877Z,10.90
2019-05-11T03:49:37.665Z,10.90
2019-05-11T03:52:05.560Z,10.90
2019-05-11T03:54:33.347Z,10.90
2019-05-11T03:57:01.429Z,10.80
2019-05-11T03:59:29.388Z,10.80
2019-05-11T04:01:57.354Z,10.70
2019-05-11T04:04:25.397Z,10.60
2019-05-11T04:06:53.271Z,10.60
2019-05-11T04:09:21.038Z,10.60
2019-05-11T04:11:48.820Z,10.60
2019-05-11T04:14:16.613Z,10.60
2019-05-11T04:16:44.401Z,10.60
2019-05-11T04:19:12.192Z,10.70
2019-05-11T04:21:39.952Z,10.70
2019-05-11T04:24:07.739Z,10.70
2019-05-11T04:26:35.503Z,10.70
2019-05-11T04:29:03.349Z,10.60
2019-05-11T04:31:31.122Z,10.40
2019-05-11T04:33:58.968Z,10.30
2019-05-11T04:36:26.741Z,10.30
2019-05-11T04:38:54.534Z,10.30
2019-05-11T04:41:22.317Z,10.30
2019-05-11T04:43:50.124Z,10.30
2019-05-11T04:46:17.973Z,10.40
2019-05-11T04:48:45.766Z,10.40
2019-05-11T04:51:13.553Z,10.30
2019-05-11T04:53:41.345Z,10.30
2019-05-11T04:56:09.137Z,10.30
2019-05-11T04:58:36.920Z,10.30
2019-05-11T05:01:05.029Z,10.10
2019-05-11T05:03:40.660Z,10.10
2019-05-11T05:06:21.202Z,10.00
2019-05-11T05:08:31.948Z,10.10
2019-05-11T05:11:00.753Z,10.30
2019-05-11T05:13:29.858Z,10.40
2019-05-11T05:15:58.247Z,10.40
2019-05-11T05:18:26.044Z,10.50
2019-05-11T05:20:53.913Z,10.40
2019-05-11T05:23:22.016Z,10.50
2019-05-11T05:25:49.788Z,10.60
2019-05-11T05:28:17.589Z,10.50
2019-05-11T05:30:45.390Z,10.50
2019-05-11T05:33:13.222Z,10.50
2019-05-11T05:35:41.008Z,10.60
2019-05-11T05:38:08.817Z,10.60
2019-05-11T05:40:36.668Z,10.50
2019-05-11T05:43:04.446Z,10.50
2019-05-11T05:45:32.228Z,10.60
2019-05-11T05:48:00.029Z,10.70
2019-05-11T05:50:27.875Z,10.60
2019-05-11T05:52:55.653Z,10.60
2019-05-11T05:55:23.556Z,10.70
2019-05-11T05:57:51.328Z,10.70
2019-05-11T06:00:19.383Z,10.70
2019-05-11T06:02:47.162Z,10.70
2019-05-11T06:05:15.021Z,10.70
2019-05-11T06:07:42.824Z,10.70
2019-05-11T06:10:10.662Z,10.70
2019-05-11T06:12:38.534Z,10.80
2019-05-11T06:15:06.493Z,10.90
2019-05-11T06:17:34.256Z,10.80
2019-05-11T06:20:02.695Z,10.70
2019-05-11T06:22:31.037Z,10.70
2019-05-11T06:24:58.833Z,10.70
2019-05-11T06:27:26.608Z,10.70
2019-05-11T06:29:54.412Z,10.80
2019-05-11T06:32:22.220Z,10.70
2019-05-11T06:34:50.009Z,10.90
2019-05-11T06:37:17.802Z,11.10
2019-05-11T06:39:45.636Z,11.20
2019-05-11T06:42:13.432Z,11.30
2019-05-11T06:44:41.258Z,11.30
2019-05-11T06:47:09.040Z,11.30
2019-05-11T06:49:36.912Z,11.20
2019-05-11T06:52:04.693Z,11.30
2019-05-11T06:54:32.484Z,11.40
2019-05-11T06:57:00.266Z,11.50
2019-05-11T06:59:28.091Z,11.50
2019-05-11T07:01:55.884Z,11.60
2019-05-11T07:04:23.704Z,11.50
2019-05-11T07:06:51.486Z,11.40
2019-05-11T07:09:19.317Z,11.50
2019-05-11T07:11:47.118Z,11.60
2019-05-11T07:14:20.488Z,11.60
2019-05-11T07:16:44.479Z,11.50
2019-05-11T07:19:12.279Z,11.50
2019-05-11T07:21:40.316Z,11.40
2019-05-11T07:24:08.089Z,11.40
2019-05-11T07:26:35.892Z,11.40
2019-05-11T07:29:03.680Z,11.50
2019-05-11T07:31:31.482Z,11.70
2019-05-11T07:33:59.263Z,11.70
2019-05-11T07:36:28.242Z,12.00
2019-05-11T07:38:57.993Z,12.10
2019-05-11T07:41:27.972Z,12.10
2019-05-11T07:43:55.361Z,12.10
2019-05-11T07:46:23.164Z,12.10
2019-05-11T07:48:51.004Z,12.00
2019-05-11T07:51:18.799Z,11.90
2019-05-11T07:53:48.606Z,11.90
2019-05-11T07:56:18.513Z,11.70
2019-05-11T07:58:47.858Z,11.70
2019-05-11T08:01:15.192Z,11.80
2019-05-11T08:03:42.972Z,11.70
2019-05-11T08:06:10.764Z,11.60
2019-05-11T08:08:38.686Z,11.70
2019-05-11T08:11:08.147Z,11.60
2019-05-11T08:13:38.568Z,11.60
2019-05-11T08:16:08.122Z,11.50
2019-05-11T08:18:35.281Z,11.40
2019-05-11T08:21:03.072Z,11.40
2019-05-11T08:23:30.952Z,11.40
2019-05-11T08:25:58.819Z,11.40
2019-05-11T08:28:28.712Z,11.40
2019-05-11T08:30:57.931Z,11.40
2019-05-11T08:33:25.705Z,11.40
2019-05-11T08:35:54.091Z,11.30
2019-05-11T08:38:21.907Z,11.30
2019-05-11T08:40:49.692Z,11.40
2019-05-11T08:43:18.076Z,11.30
2019-05-11T08:45:48.385Z,11.30
2019-05-11T08:48:15.520Z,11.20
2019-05-11T08:50:43.611Z,10.90
2019-05-11T08:53:11.428Z,10.90
2019-05-11T08:55:39.225Z,11.00
2019-05-11T08:58:07.861Z,11.00
2019-05-11T09:00:36.057Z,11.00
2019-05-11T09:03:03.891Z,11.00
2019-05-11T09:05:31.728Z,11.10
2019-05-11T09:07:59.515Z,11.10
2019-05-11T09:10:28.205Z,11.10
2019-05-11T09:12:56.859Z,11.00
2019-05-11T09:15:35.899Z,10.90
2019-05-11T09:17:57.636Z,10.90
2019-05-11T09:20:24.921Z,10.90
2019-05-11T09:22:52.716Z,10.90
2019-05-11T09:25:20.512Z,10.90
2019-05-11T09:27:48.526Z,10.90
2019-05-11T09:30:18.412Z,10.80
2019-05-11T09:32:47.786Z,10.80
2019-05-11T09:35:15.771Z,10.70
2019-05-11T09:37:43.603Z,10.70
2019-05-11T09:40:11.465Z,10.80
2019-05-11T09:42:39.253Z,10.70
2019-05-11T09:45:08.021Z,10.60
2019-05-11T09:47:38.421Z,10.50
2019-05-11T09:50:05.668Z,10.50
2019-05-11T09:52:33.444Z,10.60
2019-05-11T09:55:01.239Z,10.60
2019-05-11T09:57:29.356Z,10.60
2019-05-11T09:59:58.247Z,10.60
2019-05-11T10:02:27.905Z,10.50
2019-05-11T10:04:57.796Z,10.50
2019-05-11T10:07:25.608Z,10.50
2019-05-11T10:09:53.515Z,10.50
2019-05-11T10:12:21.295Z,10.60
2019-05-11T10:14:49.106Z,10.60
2019-05-11T10:17:18.247Z,10.60
2019-05-11T10:19:47.515Z,10.50
2019-05-11T10:22:15.904Z,10.50
2019-05-11T10:24:43.697Z,10.50
2019-05-11T10:27:11.543Z,10.60
2019-05-11T10:29:39.340Z,10.60
2019-05-11T10:32:07.992Z,10.70
2019-05-11T10:34:38.459Z,10.50
2019-05-11T10:37:05.532Z,10.60
2019-05-11T10:39:33.312Z,10.70
2019-05-11T10:42:01.115Z,10.80
2019-05-11T10:44:28.888Z,10.70
2019-05-11T10:46:58.682Z,10.70
2019-05-11T10:49:28.635Z,10.60
2019-05-11T10:51:55.877Z,10.60
2019-05-11T10:54:23.683Z,10.50
2019-05-11T10:56:51.524Z,10.40
2019-05-11T10:59:19.331Z,10.50
2019-05-11T11:01:48.355Z,10.50
2019-05-11T11:04:18.389Z,10.60
2019-05-11T11:06:48.339Z,10.70
2019-05-11T11:09:17.589Z,10.80
2019-05-11T11:11:44.980Z,10.80
2019-05-11T11:14:12.805Z,10.80
2019-05-11T11:16:42.993Z,10.90
2019-05-11T11:19:10.119Z,10.90
2019-05-11T11:21:38.461Z,10.90
2019-05-11T11:24:07.654Z,10.90
2019-05-11T11:26:37.792Z,10.90
2019-05-11T11:29:05.099Z,10.90
2019-05-11T11:31:32.962Z,10.80
2019-05-11T11:34:00.736Z,10.90
2019-05-11T11:36:28.829Z,10.80
2019-05-11T11:38:58.320Z,10.80
2019-05-11T11:41:26.456Z,10.90
2019-05-11T11:43:54.327Z,11.00
2019-05-11T11:46:22.115Z,11.00
2019-05-11T11:48:49.896Z,10.90
2019-05-11T11:51:18.759Z,10.90
2019-05-11T11:53:47.728Z,11.00
2019-05-11T11:56:15.973Z,10.90
2019-05-11T11:58:43.767Z,10.70
2019-05-11T12:01:11.549Z,10.80
2019-05-11T12:03:39.353Z,10.60
2019-05-11T12:06:08.736Z,10.70
2019-05-11T12:08:38.942Z,10.70
2019-05-11T12:11:07.939Z,10.60
2019-05-11T12:13:38.195Z,10.70
2019-05-11T12:16:07.560Z,10.60
2019-05-11T12:18:34.952Z,10.60
2019-05-11T12:21:02.784Z,10.60
2019-05-11T12:23:30.635Z,10.50
2019-05-11T12:25:58.407Z,10.60
2019-05-11T12:28:27.685Z,10.60
2019-05-11T12:30:55.613Z,10.60
2019-05-11T12:33:23.416Z,10.60
2019-05-11T12:35:51.204Z,10.60
2019-05-11T12:38:19.008Z,10.60
2019-05-11T12:40:47.741Z,10.80
2019-05-11T12:43:15.756Z,10.90
2019-05-11T12:45:43.530Z,11.10
2019-05-11T12:48:11.309Z,11.10
2019-05-11T12:50:39.117Z,11.00
2019-05-11T12:53:08.049Z,11.10
2019-05-11T12:55:37.914Z,11.20
2019-05-11T12:58:08.351Z,11.40
2019-05-11T13:00:35.485Z,11.60
2019-05-11T13:03:04.034Z,11.80
2019-05-11T13:05:31.819Z,11.70
2019-05-11T13:07:59.608Z,11.60
2019-05-11T13:10:28.267Z,11.70
2019-05-11T13:12:58.113Z,11.80
2019-05-11T13:15:28.101Z,12.00
2019-05-11T13:17:57.949Z,12.20
2019-05-11T13:20:25.189Z,12.40
2019-05-11T13:22:52.982Z,12.40
2019-05-11T13:25:20.764Z,12.60
2019-05-11T13:27:49.144Z,12.60
2019-05-11T13:30:18.359Z,12.50
2019-05-11T13:32:48.772Z,12.60
2019-05-11T13:35:17.866Z,12.80
2019-05-11T13:37:47.851Z,12.90
2019-05-11T13:40:15.100Z,13.10
2019-05-11T13:42:42.936Z,13.30
2019-05-11T13:45:10.976Z,13.50
2019-05-11T13:47:51.718Z,13.70
2019-05-11T13:50:08.432Z,13.90
2019-05-11T13:52:38.424Z,13.90
2019-05-11T13:55:07.794Z,14.10
2019-05-11T13:57:37.930Z,14.30
2019-05-11T14:00:08.226Z,14.60
2019-05-11T14:02:37.857Z,15.00
2019-05-11T14:05:05.349Z,15.40
2019-05-11T14:07:33.136Z,15.10
2019-05-11T14:10:01.203Z,15.10
2019-05-11T14:12:29.011Z,15.90
2019-05-11T14:14:57.690Z,16.50
2019-05-11T14:17:27.951Z,16.20
2019-05-11T14:19:58.300Z,16.00
2019-05-11T14:22:24.657Z,15.80
2019-05-11T14:24:52.523Z,15.50
2019-05-11T14:27:20.319Z,15.30
2019-05-11T14:29:48.823Z,15.00
2019-05-11T14:32:17.323Z,15.00
2019-05-11T14:34:45.872Z,14.90
2019-05-11T14:37:13.752Z,15.00
2019-05-11T14:39:41.544Z,15.20
2019-05-11T14:42:09.332Z,15.30
2019-05-11T14:44:37.827Z,15.40
2019-05-11T14:47:05.710Z,15.50
2019-05-11T14:49:33.516Z,15.10
2019-05-11T14:52:01.309Z,15.10
2019-05-11T14:54:29.144Z,15.10
2019-05-11T14:56:58.630Z,15.10
2019-05-11T14:59:28.554Z,15.00
2019-05-11T15:01:58.176Z,14.70
2019-05-11T15:04:25.509Z,14.70
2019-05-11T15:06:53.332Z,14.70
2019-05-11T15:09:21.124Z,14.70
2019-05-11T15:11:48.900Z,14.50
2019-05-11T15:14:19.721Z,14.60
2019-05-11T15:16:48.551Z,14.50
2019-05-11T15:19:15.795Z,14.60
2019-05-11T15:21:43.590Z,14.80
2019-05-11T15:24:11.408Z,14.90
2019-05-11T15:26:39.168Z,14.90
2019-05-11T15:29:08.142Z,15.10
2019-05-11T15:31:38.109Z,15.20
2019-05-11T15:34:08.273Z,15.30
2019-05-11T15:36:35.372Z,15.40
2019-05-11T15:39:03.344Z,15.40
2019-05-11T15:41:31.133Z,15.50
2019-05-11T15:43:58.935Z,15.70
2019-05-11T15:46:28.246Z,15.70
2019-05-11T15:49:02.741Z,15.90
2019-05-11T15:51:26.122Z,16.00
2019-05-11T15:53:53.907Z,15.90
2019-05-11T15:56:21.682Z,15.90
2019-05-11T15:58:49.479Z,16.10
2019-05-11T16:01:18.606Z,16.30
2019-05-11T16:03:49.788Z,16.20
2019-05-11T16:06:18.316Z,16.30
2019-05-11T16:08:45.781Z,16.20
2019-05-11T16:11:13.553Z,16.00
2019-05-11T16:13:41.352Z,16.00
2019-05-11T16:16:09.212Z,15.90
2019-05-11T16:18:37.159Z,15.90
2019-05-11T16:21:05.033Z,16.00
2019-05-11T16:23:32.797Z,15.70
2019-05-11T16:26:00.901Z,15.60
2019-05-11T16:28:30.870Z,15.50
2019-05-11T16:30:58.448Z,15.50
2019-05-11T16:33:26.355Z,15.50
2019-05-11T16:35:54.144Z,15.70
2019-05-11T16:38:21.928Z,15.70
2019-05-11T16:40:49.723Z,15.70
2019-05-11T16:43:19.193Z,15.80
2019-05-11T16:45:50.720Z,15.80
2019-05-11T16:48:18.428Z,15.70
2019-05-11T16:50:46.069Z,15.70
2019-05-11T16:53:13.848Z,15.60
2019-05-11T16:55:41.658Z,15.60
2019-05-11T16:58:09.428Z,15.60
2019-05-11T17:00:41.906Z,15.60
2019-05-11T17:03:08.124Z,15.50
2019-05-11T17:05:38.236Z,15.40
2019-05-11T17:08:05.468Z,15.30
2019-05-11T17:10:33.262Z,15.20
2019-05-11T17:13:01.049Z,15.20
2019-05-11T17:15:29.009Z,15.20
2019-05-11T17:17:58.735Z,15.00
2019-05-11T17:20:27.712Z,14.80
2019-05-11T17:22:55.813Z,14.70
2019-05-11T17:25:23.940Z,14.70
2019-05-11T17:27:51.692Z,14.60
2019-05-11T17:30:19.966Z,14.50
2019-05-11T17:32:49.263Z,14.40
2019-05-11T17:35:17.792Z,14.20
2019-05-11T17:37:47.927Z,14.20
2019-05-11T17:40:18.233Z,14.20
2019-05-11T17:42:45.000Z,14.10
2019-05-11T17:45:12.875Z,14.00
2019-05-11T17:47:40.954Z,14.00
2019-05-11T17:50:08.992Z,14.10
2019-05-11T17:52:38.429Z,14.20
2019-05-11T17:55:06.509Z,14.20
2019-05-11T17:57:34.292Z,14.10
2019-05-11T18:00:02.386Z,14.10
2019-05-11T18:02:30.509Z,14.10
2019-05-11T18:04:58.468Z,14.00
2019-05-11T18:07:30.298Z,14.00
2019-05-11T18:09:58.137Z,14.00
2019-05-11T18:12:28.391Z,14.00
2019-05-11T18:14:55.249Z,14.10
2019-05-11T18:17:23.320Z,14.10
2019-05-11T18:19:51.088Z,14.00
2019-05-11T18:22:19.004Z,14.00
2019-05-11T18:24:49.039Z,14.00
2019-05-11T18:27:18.331Z,13.90
2019-05-11T18:29:54.654Z,14.00
2019-05-11T18:32:22.525Z,13.90
2019-05-11T18:34:50.419Z,13.80
2019-05-11T18:37:18.710Z,13.80
2019-05-11T18:39:48.422Z,13.80
2019-05-11T18:42:18.516Z,13.80
2019-05-11T18:44:48.189Z,13.70
2019-05-11T18:47:18.152Z,13.70
2019-05-11T18:49:45.256Z,13.60
2019-05-11T18:52:13.126Z,13.50
2019-05-11T18:54:40.930Z,13.40
2019-05-11T18:57:08.795Z,13.40
2019-05-11T18:59:37.838Z,13.50
2019-05-11T19:02:08.216Z,13.40
2019-05-11T19:04:35.320Z,13.10
2019-05-11T19:07:14.247Z,13.00
2019-05-11T19:09:32.760Z,12.90
2019-05-11T19:12:00.596Z,12.90
2019-05-11T19:14:28.376Z,12.70
2019-05-11T19:16:56.264Z,12.70
2019-05-11T19:19:24.051Z,12.70
2019-05-11T19:21:51.836Z,12.60
2019-05-11T19:24:19.625Z,12.60
2019-05-11T19:26:48.094Z,12.40
2019-05-11T19:29:17.931Z,12.30
2019-05-11T19:31:47.623Z,12.20
2019-05-11T19:34:17.762Z,12.20
2019-05-11T19:36:45.099Z,12.20
2019-05-11T19:39:12.896Z,12.20
2019-05-11T19:41:40.684Z,12.10
2019-05-11T19:44:08.733Z,12.10
2019-05-11T19:46:38.641Z,12.00
2019-05-11T19:49:08.486Z,12.00
2019-05-11T19:51:39.775Z,11.90
2019-05-11T19:54:05.093Z,11.80
2019-05-11T19:56:32.883Z,11.70
2019-05-11T19:59:00.770Z,11.70
2019-05-11T20:01:28.541Z,11.70
2019-05-11T20:03:56.335Z,11.50
2019-05-11T20:06:24.108Z,11.50
2019-05-11T20:08:51.919Z,11.40
2019-05-11T20:11:19.681Z,11.30
2019-05-11T20:13:48.249Z,11.30
2019-05-11T20:16:16.135Z,11.30
2019-05-11T20:18:43.943Z,11.30
2019-05-11T20:21:18.860Z,11.10
2019-05-11T20:23:41.268Z,11.10
2019-05-11T20:26:09.070Z,11.20
2019-05-11T20:28:37.855Z,11.20
2019-05-11T20:31:07.887Z,11.00
2019-05-11T20:33:35.400Z,11.00
2019-05-11T20:36:03.263Z,10.90
2019-05-11T20:38:31.046Z,10.90
2019-05-11T20:40:58.838Z,10.70
2019-05-11T20:43:27.967Z,10.70
2019-05-11T20:45:56.334Z,10.80
2019-05-11T20:48:24.130Z,10.80
2019-05-11T20:50:51.918Z,10.70
2019-05-11T20:53:19.708Z,10.70
2019-05-11T20:55:47.840Z,10.70
2019-05-11T20:58:18.479Z,10.70
2019-05-11T21:00:45.427Z,10.60
2019-05-11T21:03:13.219Z,10.50
2019-05-11T21:05:41.060Z,10.40
2019-05-11T21:08:08.854Z,10.40
2019-05-11T21:10:38.650Z,10.30
2019-05-11T21:13:08.403Z,10.30
2019-05-11T21:15:35.793Z,10.20
2019-05-11T21:18:03.565Z,10.20
2019-05-11T21:20:31.429Z,10.10
2019-05-11T21:22:59.191Z,10.00
2019-05-11T21:25:28.732Z,10.00
2019-05-11T21:27:57.977Z,9.90
2019-05-11T21:30:26.542Z,9.80
2019-05-11T21:32:54.705Z,9.70
2019-05-11T21:35:22.506Z,9.70
2019-05-11T21:37:50.368Z,9.70
2019-05-11T21:40:18.225Z,9.70
2019-05-11T21:42:47.627Z,9.60
2019-05-11T21:45:17.852Z,9.60
2019-05-11T21:47:45.568Z,9.60
2019-05-11T21:50:13.366Z,9.70
2019-05-11T21:52:41.272Z,9.70
2019-05-11T21:55:10.148Z,9.50
2019-05-11T21:57:37.953Z,9.50
2019-05-11T22:00:08.791Z,9.50
2019-05-11T22:02:38.462Z,9.60
2019-05-11T22:05:06.060Z,9.60
2019-05-11T22:07:33.845Z,9.60
2019-05-11T22:10:01.721Z,9.60
2019-05-11T22:12:29.937Z,9.60
2019-05-11T22:14:57.995Z,9.50
2019-05-11T22:17:27.961Z,9.50
2019-05-11T22:19:55.380Z,9.40
2019-05-11T22:22:25.384Z,9.40
2019-05-11T22:24:52.777Z,9.40
2019-05-11T22:27:20.600Z,9.40
2019-05-11T22:29:48.513Z,9.40
2019-05-11T22:32:17.852Z,9.40
2019-05-11T22:34:47.866Z,9.30
2019-05-11T22:37:15.388Z,9.30
2019-05-11T22:39:43.176Z,9.30
2019-05-11T22:42:11.065Z,9.30
2019-05-11T22:44:38.836Z,9.30
2019-05-11T22:47:08.788Z,9.30
2019-05-11T22:49:36.213Z,9.20
2019-05-11T22:52:04.021Z,9.20
2019-05-11T22:54:31.793Z,9.10
2019-05-11T22:56:59.584Z,9.10
2019-05-11T22:59:28.123Z,9.10
2019-05-11T23:01:56.161Z,9.10
2019-05-11T23:04:24.025Z,9.00
2019-05-11T23:06:52.072Z,8.90
2019-05-11T23:09:19.864Z,9.00
2019-05-11T23:11:48.237Z,8.90
2019-05-11T23:14:17.977Z,8.90
2019-05-11T23:16:49.749Z,8.80
2019-05-11T23:19:15.508Z,8.80
2019-05-11T23:21:43.312Z,8.80
2019-05-11T23:24:11.084Z,8.80
2019-05-11T23:26:38.881Z,8.70
2019-05-11T23:29:08.153Z,8.70
2019-05-11T23:31:38.179Z,8.70
2019-05-11T23:34:05.728Z,8.60
2019-05-11T23:36:33.524Z,8.70
2019-05-11T23:39:01.309Z,8.60
2019-05-11T23:41:29.168Z,8.60
2019-05-11T23:43:58.376Z,8.50
2019-05-11T23:46:28.526Z,8.50
2019-05-11T23:48:57.981Z,8.50
2019-05-11T23:51:25.357Z,8.50
2019-05-11T23:53:53.584Z,8.40
2019-05-11T23:56:21.343Z,8.40
2019-05-11T23:58:49.133Z,8.40
